FACV

Calvinia Airport

Airport
ICAO code
FACV
Summary
ICAO Region
AFI
ICAO Territory
Location

, Northern Cape

Serving
Calvinia
Elevation
3250 ft
Coordinates
31° 30' 1" S , 19° 43' 33" E
Metar
FACV 240939Z 23009KT CAVOK 23/05 Q1015

Runways

Designator Length Width Surface Rops
9/27 1250 15 ASP No/No

Airport map

Aerial View

SKYbrary Partners:

Safety knowledge contributed by: